sensor_id;sensor_type;location;lat;lon;timestamp;pressure;altitude;pressure_sealevel;temperature;humidity
41044;BME280;51680;49.806;18.774;2023-07-31T00:00:58;97045.69;;;22.11;73.15
41044;BME280;51680;49.806;18.774;2023-07-31T00:03:59;97047.69;;;22.09;73.29
41044;BME280;51680;49.806;18.774;2023-07-31T00:07:01;97048.69;;;22.08;73.12
41044;BME280;51680;49.806;18.774;2023-07-31T00:10:05;97055.00;;;22.07;73.17
41044;BME280;51680;49.806;18.774;2023-07-31T00:13:08;97056.31;;;22.11;73.04
41044;BME280;51680;49.806;18.774;2023-07-31T00:16:10;97055.00;;;22.07;73.56
41044;BME280;51680;49.806;18.774;2023-07-31T00:19:12;97047.19;;;22.06;73.51
41044;BME280;51680;49.806;18.774;2023-07-31T00:22:14;97050.88;;;22.05;73.61
41044;BME280;51680;49.806;18.774;2023-07-31T00:25:15;97056.19;;;22.05;73.78
41044;BME280;51680;49.806;18.774;2023-07-31T00:28:18;97051.88;;;22.04;74.03
41044;BME280;51680;49.806;18.774;2023-07-31T00:31:20;97050.56;;;22.00;74.19
41044;BME280;51680;49.806;18.774;2023-07-31T00:34:22;97050.91;;;21.97;74.33
41044;BME280;51680;49.806;18.774;2023-07-31T00:37:24;97050.28;;;21.95;74.22
41044;BME280;51680;49.806;18.774;2023-07-31T00:40:26;97063.22;;;21.98;74.20
41044;BME280;51680;49.806;18.774;2023-07-31T00:43:29;97058.56;;;22.00;74.37
41044;BME280;51680;49.806;18.774;2023-07-31T00:46:31;97064.22;;;21.97;74.36
41044;BME280;51680;49.806;18.774;2023-07-31T00:49:32;97059.09;;;21.95;74.39
41044;BME280;51680;49.806;18.774;2023-07-31T00:52:35;97065.38;;;21.94;74.16
41044;BME280;51680;49.806;18.774;2023-07-31T00:55:37;97066.88;;;21.97;74.61
41044;BME280;51680;49.806;18.774;2023-07-31T00:58:41;97069.91;;;21.94;74.76
41044;BME280;51680;49.806;18.774;2023-07-31T01:01:43;97062.94;;;21.93;74.59
41044;BME280;51680;49.806;18.774;2023-07-31T01:04:46;97058.09;;;21.96;74.58
41044;BME280;51680;49.806;18.774;2023-07-31T01:07:52;97058.88;;;21.97;74.73
41044;BME280;51680;49.806;18.774;2023-07-31T01:11:04;97061.38;;;21.98;74.81
41044;BME280;51680;49.806;18.774;2023-07-31T01:14:10;97063.56;;;21.95;75.07
41044;BME280;51680;49.806;18.774;2023-07-31T01:17:12;97062.94;;;21.93;74.93
41044;BME280;51680;49.806;18.774;2023-07-31T01:20:17;97064.91;;;21.91;75.31
41044;BME280;51680;49.806;18.774;2023-07-31T01:23:36;97066.94;;;21.89;75.72
41044;BME280;51680;49.806;18.774;2023-07-31T01:26:45;97067.28;;;21.86;75.39
41044;BME280;51680;49.806;18.774;2023-07-31T01:29:56;97082.22;;;21.87;75.27
41044;BME280;51680;49.806;18.774;2023-07-31T01:32:59;97084.06;;;21.86;75.23
41044;BME280;51680;49.806;18.774;2023-07-31T01:36:02;97081.44;;;21.78;75.47
41044;BME280;51680;49.806;18.774;2023-07-31T01:39:05;97085.81;;;21.71;75.70
41044;BME280;51680;49.806;18.774;2023-07-31T01:42:08;97088.66;;;21.70;75.50
41044;BME280;51680;49.806;18.774;2023-07-31T01:45:10;97093.97;;;21.70;75.09
41044;BME280;51680;49.806;18.774;2023-07-31T01:48:12;97090.13;;;21.72;75.35
41044;BME280;51680;49.806;18.774;2023-07-31T01:51:15;97087.31;;;21.74;75.10
41044;BME280;51680;49.806;18.774;2023-07-31T01:54:17;97087.31;;;21.74;75.33
41044;BME280;51680;49.806;18.774;2023-07-31T01:57:20;97100.59;;;21.74;75.26
41044;BME280;51680;49.806;18.774;2023-07-31T02:00:22;97103.75;;;21.69;75.14
41044;BME280;51680;49.806;18.774;2023-07-31T02:03:24;97092.78;;;21.72;74.99
41044;BME280;51680;49.806;18.774;2023-07-31T02:06:27;97089.59;;;21.77;75.09
41044;BME280;51680;49.806;18.774;2023-07-31T02:09:29;97101.22;;;21.76;75.06
41044;BME280;51680;49.806;18.774;2023-07-31T02:12:33;97102.88;;;21.77;75.01
41044;BME280;51680;49.806;18.774;2023-07-31T02:15:36;97095.91;;;21.76;74.82
41044;BME280;51680;49.806;18.774;2023-07-31T02:18:38;97106.72;;;21.74;74.75
41044;BME280;51680;49.806;18.774;2023-07-31T02:21:40;97096.44;;;21.71;75.00
41044;BME280;51680;49.806;18.774;2023-07-31T02:24:41;97107.88;;;21.72;74.70
41044;BME280;51680;49.806;18.774;2023-07-31T02:27:44;97104.22;;;21.73;74.81
41044;BME280;51680;49.806;18.774;2023-07-31T02:30:46;97109.53;;;21.73;74.89
41044;BME280;51680;49.806;18.774;2023-07-31T02:33:48;97114.84;;;21.73;74.68
41044;BME280;51680;49.806;18.774;2023-07-31T02:36:50;97112.03;;;21.74;74.66
41044;BME280;51680;49.806;18.774;2023-07-31T02:39:52;97108.56;;;21.74;74.59
41044;BME280;51680;49.806;18.774;2023-07-31T02:42:55;97114.53;;;21.76;74.60
41044;BME280;51680;49.806;18.774;2023-07-31T02:45:58;97115.88;;;21.64;75.00
41044;BME280;51680;49.806;18.774;2023-07-31T02:49:01;97115.53;;;21.67;74.71
41044;BME280;51680;49.806;18.774;2023-07-31T02:52:03;97120.84;;;21.67;74.90
41044;BME280;51680;49.806;18.774;2023-07-31T02:55:06;97126.31;;;21.65;74.90
41044;BME280;51680;49.806;18.774;2023-07-31T02:58:09;97124.84;;;21.63;75.07
41044;BME280;51680;49.806;18.774;2023-07-31T03:01:11;97123.53;;;21.59;75.17
41044;BME280;51680;49.806;18.774;2023-07-31T03:04:13;97132.34;;;21.59;75.34
41044;BME280;51680;49.806;18.774;2023-07-31T03:07:15;97130.84;;;21.57;75.43
41044;BME280;51680;49.806;18.774;2023-07-31T03:10:16;97132.88;;;21.55;75.45
41044;BME280;51680;49.806;18.774;2023-07-31T03:13:20;97137.50;;;21.53;75.61
41044;BME280;51680;49.806;18.774;2023-07-31T03:16:21;97149.97;;;21.52;75.84
41044;BME280;51680;49.806;18.774;2023-07-31T03:19:23;97145.47;;;21.53;75.94
41044;BME280;51680;49.806;18.774;2023-07-31T03:22:25;97150.16;;;21.51;76.24
41044;BME280;51680;49.806;18.774;2023-07-31T03:25:27;97146.81;;;21.49;76.44
41044;BME280;51680;49.806;18.774;2023-07-31T03:28:30;97150.31;;;21.41;76.34
41044;BME280;51680;49.806;18.774;2023-07-31T03:31:32;97143.38;;;21.32;76.29
41044;BME280;51680;49.806;18.774;2023-07-31T03:34:33;97147.56;;;21.27;76.42
41044;BME280;51680;49.806;18.774;2023-07-31T03:37:35;97152.19;;;21.25;76.49
41044;BME280;51680;49.806;18.774;2023-07-31T03:40:38;97152.56;;;21.22;76.63
41044;BME280;51680;49.806;18.774;2023-07-31T03:43:41;97156.00;;;21.22;76.35
41044;BME280;51680;49.806;18.774;2023-07-31T03:46:43;97154.72;;;21.18;76.27
41044;BME280;51680;49.806;18.774;2023-07-31T03:49:45;97154.88;;;21.17;75.65
41044;BME280;51680;49.806;18.774;2023-07-31T03:52:47;97161.69;;;21.19;75.64
41044;BME280;51680;49.806;18.774;2023-07-31T03:55:48;97158.88;;;21.21;75.48
41044;BME280;51680;49.806;18.774;2023-07-31T03:58:51;97160.69;;;21.20;75.25
41044;BME280;51680;49.806;18.774;2023-07-31T04:01:53;97159.84;;;21.20;75.17
41044;BME280;51680;49.806;18.774;2023-07-31T04:04:55;97156.53;;;21.18;75.10
41044;BME280;51680;49.806;18.774;2023-07-31T04:07:57;97153.41;;;21.14;74.63
41044;BME280;51680;49.806;18.774;2023-07-31T04:10:58;97158.88;;;21.13;74.20
41044;BME280;51680;49.806;18.774;2023-07-31T04:14:02;97157.53;;;21.09;73.87
41044;BME280;51680;49.806;18.774;2023-07-31T04:17:04;97166.50;;;21.08;73.76
41044;BME280;51680;49.806;18.774;2023-07-31T04:20:06;97169.16;;;21.08;73.57
41044;BME280;51680;49.806;18.774;2023-07-31T04:23:08;97169.66;;;21.11;73.82
41044;BME280;51680;49.806;18.774;2023-07-31T04:26:10;97168.31;;;21.07;74.19
41044;BME280;51680;49.806;18.774;2023-07-31T04:29:13;97172.81;;;21.07;74.39
41044;BME280;51680;49.806;18.774;2023-07-31T04:32:16;97174.16;;;20.95;74.61
41044;BME280;51680;49.806;18.774;2023-07-31T04:35:18;97179.59;;;20.77;74.96
41044;BME280;51680;49.806;18.774;2023-07-31T04:38:20;97185.41;;;20.65;75.59
41044;BME280;51680;49.806;18.774;2023-07-31T04:41:22;97184.88;;;20.45;76.06
41044;BME280;51680;49.806;18.774;2023-07-31T04:44:25;97188.34;;;20.30;76.56
41044;BME280;51680;49.806;18.774;2023-07-31T04:47:27;97192.47;;;20.24;77.05
41044;BME280;51680;49.806;18.774;2023-07-31T04:50:29;97194.63;;;20.21;77.16
41044;BME280;51680;49.806;18.774;2023-07-31T04:53:31;97196.44;;;20.20;77.23
41044;BME280;51680;49.806;18.774;2023-07-31T04:56:33;97196.13;;;20.23;77.41
41044;BME280;51680;49.806;18.774;2023-07-31T04:59:36;97191.31;;;20.27;77.43
41044;BME280;51680;49.806;18.774;2023-07-31T05:02:38;97187.28;;;20.15;77.60
41044;BME280;51680;49.806;18.774;2023-07-31T05:05:40;97190.28;;;20.12;77.69
41044;BME280;51680;49.806;18.774;2023-07-31T05:08:42;97190.63;;;20.17;77.26
41044;BME280;51680;49.806;18.774;2023-07-31T05:11:44;97195.94;;;20.17;77.49
41044;BME280;51680;49.806;18.774;2023-07-31T05:14:47;97190.28;;;20.12;77.79
41044;BME280;51680;49.806;18.774;2023-07-31T05:17:49;97187.28;;;20.15;77.81
41044;BME280;51680;49.806;18.774;2023-07-31T05:20:52;97190.00;;;20.31;77.69
41044;BME280;51680;49.806;18.774;2023-07-31T05:23:53;97188.34;;;20.38;76.72
41044;BME280;51680;49.806;18.774;2023-07-31T05:26:55;97182.38;;;20.44;76.59
41044;BME280;51680;49.806;18.774;2023-07-31T05:29:58;97181.75;;;20.66;75.94
41044;BME280;51680;49.806;18.774;2023-07-31T05:33:00;97176.44;;;20.82;75.89
41044;BME280;51680;49.806;18.774;2023-07-31T05:36:02;97178.28;;;20.97;74.73
41044;BME280;51680;49.806;18.774;2023-07-31T05:39:04;97173.94;;;21.28;73.45
41044;BME280;51680;49.806;18.774;2023-07-31T05:42:06;97171.84;;;21.62;72.13
41044;BME280;51680;49.806;18.774;2023-07-31T05:45:10;97174.59;;;21.93;71.53
41044;BME280;51680;49.806;18.774;2023-07-31T05:48:13;97176.28;;;22.16;70.54
41044;BME280;51680;49.806;18.774;2023-07-31T05:51:15;97175.88;;;22.27;69.79
41044;BME280;51680;49.806;18.774;2023-07-31T05:54:16;97183.63;;;22.45;69.65
41044;BME280;51680;49.806;18.774;2023-07-31T05:57:18;97180.03;;;22.60;68.93
41044;BME280;51680;49.806;18.774;2023-07-31T06:00:22;97184.81;;;22.65;67.81
41044;BME280;51680;49.806;18.774;2023-07-31T06:03:24;97190.56;;;22.76;67.69
41044;BME280;51680;49.806;18.774;2023-07-31T06:06:25;97186.50;;;23.03;67.43
41044;BME280;51680;49.806;18.774;2023-07-31T06:09:27;97188.34;;;23.54;66.15
41044;BME280;51680;49.806;18.774;2023-07-31T06:12:29;97192.44;;;24.08;64.97
41044;BME280;51680;49.806;18.774;2023-07-31T06:15:33;97176.72;;;24.55;63.09
41044;BME280;51680;49.806;18.774;2023-07-31T06:18:34;97181.22;;;24.90;61.64
41044;BME280;51680;49.806;18.774;2023-07-31T06:21:36;97178.25;;;25.27;60.65
41044;BME280;51680;49.806;18.774;2023-07-31T06:24:38;97178.94;;;25.63;60.07
41044;BME280;51680;49.806;18.774;2023-07-31T06:27:40;97185.94;;;25.98;59.62
41044;BME280;51680;49.806;18.774;2023-07-31T06:30:43;97189.91;;;26.08;58.33
41044;BME280;51680;49.806;18.774;2023-07-31T06:33:45;97185.84;;;26.19;58.18
41044;BME280;51680;49.806;18.774;2023-07-31T06:36:47;97187.97;;;26.49;57.41
41044;BME280;51680;49.806;18.774;2023-07-31T06:39:48;97183.88;;;26.53;57.51
41044;BME280;51680;49.806;18.774;2023-07-31T06:42:50;97184.78;;;26.67;56.24
41044;BME280;51680;49.806;18.774;2023-07-31T06:45:53;97188.50;;;26.79;55.56
41044;BME280;51680;49.806;18.774;2023-07-31T06:48:55;97187.31;;;27.01;55.24
41044;BME280;51680;49.806;18.774;2023-07-31T06:51:57;97187.50;;;26.99;55.46
41044;BME280;51680;49.806;18.774;2023-07-31T06:55:02;97189.56;;;26.97;54.00
41044;BME280;51680;49.806;18.774;2023-07-31T06:58:05;97189.75;;;27.09;54.66
41044;BME280;51680;49.806;18.774;2023-07-31T07:01:08;97197.03;;;27.34;53.67
41044;BME280;51680;49.806;18.774;2023-07-31T07:04:10;97198.25;;;27.38;53.97
41044;BME280;51680;49.806;18.774;2023-07-31T07:07:11;97198.88;;;27.21;54.19
41044;BME280;51680;49.806;18.774;2023-07-31T07:10:13;97203.38;;;26.94;54.24
41044;BME280;51680;49.806;18.774;2023-07-31T07:13:15;97202.13;;;26.97;54.29
41044;BME280;51680;49.806;18.774;2023-07-31T07:16:20;97202.97;;;27.10;54.49
41044;BME280;51680;49.806;18.774;2023-07-31T07:19:21;97204.63;;;26.98;54.62
41044;BME280;51680;49.806;18.774;2023-07-31T07:22:23;97194.75;;;27.18;54.24
41044;BME280;51680;49.806;18.774;2023-07-31T07:25:26;97194.75;;;27.38;53.49
41044;BME280;51680;49.806;18.774;2023-07-31T07:28:28;97200.09;;;27.64;52.11
41044;BME280;51680;49.806;18.774;2023-07-31T07:31:31;97195.13;;;27.87;52.44
41044;BME280;51680;49.806;18.774;2023-07-31T07:34:33;97197.94;;;28.05;51.81
41044;BME280;51680;49.806;18.774;2023-07-31T07:37:34;97188.81;;;28.19;50.40
41044;BME280;51680;49.806;18.774;2023-07-31T07:40:38;97187.75;;;28.77;49.80
41044;BME280;51680;49.806;18.774;2023-07-31T07:43:40;97178.56;;;28.53;45.34
41044;BME280;51680;49.806;18.774;2023-07-31T07:46:43;97184.81;;;28.78;48.62
41044;BME280;51680;49.806;18.774;2023-07-31T07:49:45;97183.13;;;29.15;48.23
41044;BME280;51680;49.806;18.774;2023-07-31T07:52:47;97185.56;;;29.48;46.67
41044;BME280;51680;49.806;18.774;2023-07-31T07:55:49;97182.53;;;29.38;46.71
41044;BME280;51680;49.806;18.774;2023-07-31T07:58:51;97193.84;;;28.90;47.76
41044;BME280;51680;49.806;18.774;2023-07-31T08:01:54;97188.94;;;28.81;47.64
41044;BME280;51680;49.806;18.774;2023-07-31T08:04:56;97185.94;;;28.95;47.24
41044;BME280;51680;49.806;18.774;2023-07-31T08:07:58;97187.59;;;28.96;47.29
41044;BME280;51680;49.806;18.774;2023-07-31T08:11:00;97189.59;;;28.76;47.33
41044;BME280;51680;49.806;18.774;2023-07-31T08:14:01;97182.50;;;29.19;46.58
41044;BME280;51680;49.806;18.774;2023-07-31T08:17:05;97184.47;;;29.30;46.86
41044;BME280;51680;49.806;18.774;2023-07-31T08:20:08;97188.69;;;29.44;46.44
41044;BME280;51680;49.806;18.774;2023-07-31T08:23:09;97187.03;;;29.43;46.83
41044;BME280;51680;49.806;18.774;2023-07-31T08:26:14;97191.22;;;29.64;45.24
41044;BME280;51680;49.806;18.774;2023-07-31T08:29:16;97183.72;;;29.91;45.63
41044;BME280;51680;49.806;18.774;2023-07-31T08:32:19;97181.34;;;29.33;45.40
41044;BME280;51680;49.806;18.774;2023-07-31T08:35:21;97182.31;;;29.39;45.98
41044;BME280;51680;49.806;18.774;2023-07-31T08:38:23;97189.44;;;29.76;45.06
41044;BME280;51680;49.806;18.774;2023-07-31T08:41:27;97189.69;;;29.93;44.71
41044;BME280;51680;49.806;18.774;2023-07-31T08:44:29;97188.03;;;30.28;43.26
41044;BME280;51680;49.806;18.774;2023-07-31T08:47:33;97187.66;;;30.42;43.63
41044;BME280;51680;49.806;18.774;2023-07-31T08:50:36;97197.94;;;30.63;43.68
41044;BME280;51680;49.806;18.774;2023-07-31T08:53:39;97182.88;;;31.03;42.45
41044;BME280;51680;49.806;18.774;2023-07-31T08:56:41;97178.94;;;30.58;42.91
41044;BME280;51680;49.806;18.774;2023-07-31T08:59:43;97183.75;;;30.74;43.77
41044;BME280;51680;49.806;18.774;2023-07-31T09:02:52;97181.50;;;30.53;42.72
41044;BME280;51680;49.806;18.774;2023-07-31T09:05:56;97177.66;;;30.79;43.88
41044;BME280;51680;49.806;18.774;2023-07-31T09:08:59;97161.56;;;31.13;43.09
41044;BME280;51680;49.806;18.774;2023-07-31T09:12:01;97162.44;;;30.84;41.37
41044;BME280;51680;49.806;18.774;2023-07-31T09:15:05;97171.34;;;30.37;40.85
41044;BME280;51680;49.806;18.774;2023-07-31T09:18:08;97165.56;;;30.52;42.65
41044;BME280;51680;49.806;18.774;2023-07-31T09:21:10;97163.63;;;30.88;42.48
41044;BME280;51680;49.806;18.774;2023-07-31T09:24:24;97165.66;;;29.91;41.47
41044;BME280;51680;49.806;18.774;2023-07-31T09:27:26;97172.56;;;30.23;43.38
41044;BME280;51680;49.806;18.774;2023-07-31T09:30:28;97163.72;;;30.82;41.95
41044;BME280;51680;49.806;18.774;2023-07-31T09:33:31;97162.19;;;31.38;42.65
41044;BME280;51680;49.806;18.774;2023-07-31T09:36:39;97161.25;;;31.56;42.23
41044;BME280;51680;49.806;18.774;2023-07-31T09:39:46;97149.69;;;31.03;40.57
41044;BME280;51680;49.806;18.774;2023-07-31T09:42:48;97146.75;;;31.04;40.63
41044;BME280;51680;49.806;18.774;2023-07-31T09:45:55;97141.38;;;31.04;39.65
41044;BME280;51680;49.806;18.774;2023-07-31T09:49:06;97136.41;;;31.01;39.53
41044;BME280;51680;49.806;18.774;2023-07-31T09:52:12;97137.59;;;30.64;38.94
41044;BME280;51680;49.806;18.774;2023-07-31T09:55:16;97134.53;;;30.61;40.12
41044;BME280;51680;49.806;18.774;2023-07-31T09:58:18;97128.34;;;30.60;40.30
41044;BME280;51680;49.806;18.774;2023-07-31T10:01:20;97131.63;;;30.33;39.93
41044;BME280;51680;49.806;18.774;2023-07-31T10:04:27;97132.72;;;30.73;39.47
41044;BME280;51680;49.806;18.774;2023-07-31T10:07:30;97127.19;;;30.97;40.73
41044;BME280;51680;49.806;18.774;2023-07-31T10:10:32;97137.66;;;31.28;39.67
41044;BME280;51680;49.806;18.774;2023-07-31T10:13:37;97128.50;;;31.29;38.32
41044;BME280;51680;49.806;18.774;2023-07-31T10:16:39;97116.44;;;31.32;38.13
41044;BME280;51680;49.806;18.774;2023-07-31T10:19:45;97108.44;;;31.25;37.20
41044;BME280;51680;49.806;18.774;2023-07-31T10:22:47;97109.59;;;31.18;36.03
41044;BME280;51680;49.806;18.774;2023-07-31T10:25:49;97119.66;;;30.99;39.20
41044;BME280;51680;49.806;18.774;2023-07-31T10:28:54;97118.47;;;30.95;38.27
41044;BME280;51680;49.806;18.774;2023-07-31T10:31:57;97121.41;;;30.94;38.62
41044;BME280;51680;49.806;18.774;2023-07-31T10:35:01;97114.22;;;30.76;38.40
41044;BME280;51680;49.806;18.774;2023-07-31T10:38:10;97115.38;;;30.69;39.04
41044;BME280;51680;49.806;18.774;2023-07-31T10:41:13;97100.66;;;30.65;38.56
41044;BME280;51680;49.806;18.774;2023-07-31T10:44:17;97097.53;;;30.38;39.59
41044;BME280;51680;49.806;18.774;2023-07-31T10:47:18;97100.41;;;30.55;39.65
41044;BME280;51680;49.806;18.774;2023-07-31T10:50:22;97098.91;;;30.88;38.92
41044;BME280;51680;49.806;18.774;2023-07-31T10:53:25;97091.38;;;30.90;37.82
41044;BME280;51680;49.806;18.774;2023-07-31T10:56:37;97085.16;;;31.01;35.73
41044;BME280;51680;49.806;18.774;2023-07-31T10:59:38;97093.25;;;30.90;37.61
41044;BME280;51680;49.806;18.774;2023-07-31T11:02:40;97086.31;;;30.82;37.15
41044;BME280;51680;49.806;18.774;2023-07-31T11:05:51;97084.25;;;30.66;38.09
41044;BME280;51680;49.806;18.774;2023-07-31T11:08:54;97086.13;;;30.54;39.15
41044;BME280;51680;49.806;18.774;2023-07-31T11:11:56;97080.00;;;30.47;38.21
41044;BME280;51680;49.806;18.774;2023-07-31T11:14:57;97072.69;;;30.36;37.82
41044;BME280;51680;49.806;18.774;2023-07-31T11:18:00;97075.03;;;30.33;38.38
41044;BME280;51680;49.806;18.774;2023-07-31T11:21:05;97069.13;;;30.24;37.72
41044;BME280;51680;49.806;18.774;2023-07-31T11:24:06;97078.88;;;30.07;39.29
41044;BME280;51680;49.806;18.774;2023-07-31T11:27:08;97066.78;;;29.98;38.44
41044;BME280;51680;49.806;18.774;2023-07-31T11:30:11;97072.97;;;29.99;38.93
41044;BME280;51680;49.806;18.774;2023-07-31T11:33:13;97076.34;;;29.58;38.71
41044;BME280;51680;49.806;18.774;2023-07-31T11:36:18;97068.13;;;29.35;38.82
41044;BME280;51680;49.806;18.774;2023-07-31T11:39:20;97057.19;;;29.12;38.88
41044;BME280;51680;49.806;18.774;2023-07-31T11:42:22;97060.13;;;29.04;39.38
41044;BME280;51680;49.806;18.774;2023-07-31T11:45:25;97062.41;;;29.07;39.59
41044;BME280;51680;49.806;18.774;2023-07-31T11:48:29;97058.66;;;29.08;39.41
41044;BME280;51680;49.806;18.774;2023-07-31T11:51:32;97062.88;;;29.22;39.16
41044;BME280;51680;49.806;18.774;2023-07-31T11:54:34;97060.75;;;29.24;38.96
41044;BME280;51680;49.806;18.774;2023-07-31T11:57:37;97058.00;;;29.30;39.24
41044;BME280;51680;49.806;18.774;2023-07-31T12:00:41;97057.84;;;29.25;38.32
41044;BME280;51680;49.806;18.774;2023-07-31T12:03:42;97030.00;;;28.95;38.90
41044;BME280;51680;49.806;18.774;2023-07-31T12:06:47;97043.16;;;28.54;39.58
41044;BME280;51680;49.806;18.774;2023-07-31T12:09:52;97044.75;;;28.62;40.14
41044;BME280;51680;49.806;18.774;2023-07-31T12:13:03;97037.63;;;28.74;39.55
41044;BME280;51680;49.806;18.774;2023-07-31T12:16:05;97031.22;;;28.75;39.80
41044;BME280;51680;49.806;18.774;2023-07-31T12:19:07;97029.84;;;28.66;39.82
41044;BME280;51680;49.806;18.774;2023-07-31T12:22:14;97016.41;;;28.66;39.06
41044;BME280;51680;49.806;18.774;2023-07-31T12:25:16;97018.72;;;28.62;40.20
41044;BME280;51680;49.806;18.774;2023-07-31T12:28:22;97012.84;;;28.72;39.84
41044;BME280;51680;49.806;18.774;2023-07-31T12:31:27;97016.34;;;28.72;40.30
41044;BME280;51680;49.806;18.774;2023-07-31T12:34:42;97005.34;;;28.80;40.47
41044;BME280;51680;49.806;18.774;2023-07-31T12:37:45;97008.59;;;28.82;41.36
41044;BME280;51680;49.806;18.774;2023-07-31T12:40:47;97006.75;;;28.83;40.35
41044;BME280;51680;49.806;18.774;2023-07-31T12:43:48;97008.56;;;28.89;40.59
41044;BME280;51680;49.806;18.774;2023-07-31T12:46:50;97005.28;;;28.87;40.05
41044;BME280;51680;49.806;18.774;2023-07-31T12:49:52;97008.56;;;28.89;41.40
41044;BME280;51680;49.806;18.774;2023-07-31T12:52:55;96999.00;;;28.93;40.65
41044;BME280;51680;49.806;18.774;2023-07-31T12:55:57;97000.44;;;28.95;40.38
41044;BME280;51680;49.806;18.774;2023-07-31T12:58:59;96992.69;;;28.81;40.68
41044;BME280;51680;49.806;18.774;2023-07-31T13:02:01;96999.06;;;28.86;40.57
41044;BME280;51680;49.806;18.774;2023-07-31T13:05:03;96989.69;;;28.71;40.36
41044;BME280;51680;49.806;18.774;2023-07-31T13:08:06;96988.78;;;28.59;40.76
41044;BME280;51680;49.806;18.774;2023-07-31T13:11:08;96996.56;;;28.42;40.20
41044;BME280;51680;49.806;18.774;2023-07-31T13:14:10;96992.25;;;28.35;41.24
41044;BME280;51680;49.806;18.774;2023-07-31T13:17:12;96981.84;;;28.14;41.05
41044;BME280;51680;49.806;18.774;2023-07-31T13:20:14;96984.34;;;28.15;40.88
41044;BME280;51680;49.806;18.774;2023-07-31T13:23:17;96977.75;;;28.11;41.13
41044;BME280;51680;49.806;18.774;2023-07-31T13:26:19;96979.25;;;28.07;41.52
41044;BME280;51680;49.806;18.774;2023-07-31T13:29:21;96973.59;;;28.15;41.39
41044;BME280;51680;49.806;18.774;2023-07-31T13:32:24;96972.28;;;28.24;42.07
41044;BME280;51680;49.806;18.774;2023-07-31T13:35:26;96975.31;;;28.34;42.59
41044;BME280;51680;49.806;18.774;2023-07-31T13:38:29;96964.75;;;28.39;42.27
41044;BME280;51680;49.806;18.774;2023-07-31T13:41:31;96961.84;;;28.41;42.00
41044;BME280;51680;49.806;18.774;2023-07-31T13:44:33;96950.91;;;28.42;41.94
41044;BME280;51680;49.806;18.774;2023-07-31T13:47:35;96961.44;;;28.44;42.03
41044;BME280;51680;49.806;18.774;2023-07-31T13:50:37;96965.41;;;28.35;42.36
41044;BME280;51680;49.806;18.774;2023-07-31T13:53:40;96962.13;;;28.26;42.18
41044;BME280;51680;49.806;18.774;2023-07-31T13:56:43;96958.75;;;28.13;41.49
41044;BME280;51680;49.806;18.774;2023-07-31T13:59:44;96952.81;;;28.04;41.08
41044;BME280;51680;49.806;18.774;2023-07-31T14:02:46;96951.72;;;27.81;41.34
41044;BME280;51680;49.806;18.774;2023-07-31T14:05:48;96963.63;;;27.54;41.68
41044;BME280;51680;49.806;18.774;2023-07-31T14:08:51;96960.13;;;27.47;43.05
41044;BME280;51680;49.806;18.774;2023-07-31T14:11:53;96961.19;;;27.46;42.79
41044;BME280;51680;49.806;18.774;2023-07-31T14:14:55;96957.44;;;27.53;42.58
41044;BME280;51680;49.806;18.774;2023-07-31T14:17:56;96959.47;;;27.58;42.75
41044;BME280;51680;49.806;18.774;2023-07-31T14:20:58;96961.09;;;27.65;42.36
41044;BME280;51680;49.806;18.774;2023-07-31T14:24:01;96961.91;;;27.66;42.26
41044;BME280;51680;49.806;18.774;2023-07-31T14:27:04;96964.34;;;27.74;42.85
41044;BME280;51680;49.806;18.774;2023-07-31T14:30:07;96959.78;;;27.81;42.60
41044;BME280;51680;49.806;18.774;2023-07-31T14:33:09;96948.63;;;27.84;42.35
41044;BME280;51680;49.806;18.774;2023-07-31T14:36:10;96956.06;;;27.82;43.38
41044;BME280;51680;49.806;18.774;2023-07-31T14:39:14;96949.03;;;27.81;42.81
41044;BME280;51680;49.806;18.774;2023-07-31T14:42:15;96953.19;;;27.77;43.91
41044;BME280;51680;49.806;18.774;2023-07-31T14:45:18;96951.72;;;27.81;43.86
41044;BME280;51680;49.806;18.774;2023-07-31T14:48:20;96950.25;;;27.85;44.18
41044;BME280;51680;49.806;18.774;2023-07-31T14:51:22;96954.00;;;27.84;44.62
41044;BME280;51680;49.806;18.774;2023-07-31T14:54:25;96943.00;;;27.92;44.39
41044;BME280;51680;49.806;18.774;2023-07-31T14:57:27;96941.69;;;28.01;44.23
41044;BME280;51680;49.806;18.774;2023-07-31T15:00:47;96946.38;;;28.12;44.42
41044;BME280;51680;49.806;18.774;2023-07-31T15:03:49;96932.22;;;28.23;44.29
41044;BME280;51680;49.806;18.774;2023-07-31T15:06:52;96942.28;;;28.34;44.93
41044;BME280;51680;49.806;18.774;2023-07-31T15:09:55;96937.91;;;28.33;43.56
41044;BME280;51680;49.806;18.774;2023-07-31T15:12:57;96938.28;;;28.43;44.11
41044;BME280;51680;49.806;18.774;2023-07-31T15:15:59;96943.22;;;28.46;44.44
41044;BME280;51680;49.806;18.774;2023-07-31T15:19:01;96938.28;;;28.43;44.11
41044;BME280;51680;49.806;18.774;2023-07-31T15:22:03;96930.03;;;28.38;43.36
41044;BME280;51680;49.806;18.774;2023-07-31T15:25:08;96932.31;;;28.34;43.80
41044;BME280;51680;49.806;18.774;2023-07-31T15:28:09;96933.25;;;28.22;43.62
41044;BME280;51680;49.806;18.774;2023-07-31T15:31:11;96925.72;;;28.12;43.93
41044;BME280;51680;49.806;18.774;2023-07-31T15:34:13;96920.97;;;28.08;44.04
41044;BME280;51680;49.806;18.774;2023-07-31T15:37:15;96927.88;;;27.97;44.57
41044;BME280;51680;49.806;18.774;2023-07-31T15:40:19;96909.53;;;27.94;43.44
41044;BME280;51680;49.806;18.774;2023-07-31T15:43:21;96904.63;;;27.85;43.70
41044;BME280;51680;49.806;18.774;2023-07-31T15:46:23;96899.94;;;27.80;43.88
41044;BME280;51680;49.806;18.774;2023-07-31T15:49:25;96900.31;;;27.84;44.64
41044;BME280;51680;49.806;18.774;2023-07-31T15:52:27;96903.53;;;27.92;44.54
41044;BME280;51680;49.806;18.774;2023-07-31T15:55:30;96894.00;;;27.96;43.72